Time;durP1;ratioP1;P1;durP2;ratioP2;P2;SDS_P1;SDS_P2;PMS_P1;PMS_P2;Temp;Humidity;BMP_temperature;BMP_pressure;BME280_temperature;BME280_humidity;BME280_pressure;Samples;Min_cycle;Max_cycle;Signal;HPM_P1;HPM_P2
2022/09/22 00:01:08;;;;;;;;;;;20.30;84.00;;;;;;5066413;28;19925;-67
2022/09/22 00:03:35;;;;;;;;;;;20.30;83.90;;;;;;5054314;28;19928;-67
2022/09/22 00:06:07;;;;;;;;;;;20.50;84.10;;;;;;5069217;28;19924;-67
2022/09/22 00:08:34;;;;;;;;;;;20.30;83.10;;;;;;5074600;28;20306;-61
2022/09/22 00:11:19;;;;;;;;;;;20.60;84.00;;;;;;5067679;28;20346;-68
2022/09/22 00:13:52;;;;;;;;;;;20.20;83.80;;;;;;5070242;28;19924;-67
2022/09/22 00:16:18;;;;;;;;;;;20.20;83.90;;;;;;5062362;28;19960;-61
2022/09/22 00:18:44;;;;;;;;;;;20.20;83.90;;;;;;5054355;28;19927;-64
2022/09/22 00:21:11;;;;;;;;;;;;;;;;;;5061899;28;20393;-62
2022/09/22 00:23:37;;;;;;;;;;;20.60;84.00;;;;;;5063645;28;19931;-62
2022/09/22 00:26:06;;;;;;;;;;;20.30;83.90;;;;;;5054054;28;20314;-60
2022/09/22 00:28:33;;;;;;;;;;;20.70;84.10;;;;;;5053974;28;19928;-60
2022/09/22 00:30:58;;;;;;;;;;;20.40;83.90;;;;;;5058308;28;19966;-67
2022/09/22 00:33:24;;;;;;;;;;;20.40;83.80;;;;;;5061663;28;20344;-68
2022/09/22 00:35:59;;;;;;;;;;;20.50;83.90;;;;;;5074294;28;19924;-60
2022/09/22 00:38:25;;;;;;;;;;;;;;;;;;5070462;28;19924;-65
2022/09/22 00:40:50;;;;;;;;;;;20.40;83.80;;;;;;5072996;28;19986;-60
2022/09/22 00:43:18;;;;;;;;;;;20.50;83.80;;;;;;5069106;28;19920;-60
2022/09/22 00:45:44;;;;;;;;;;;20.40;83.70;;;;;;5056596;28;19925;-60
2022/09/22 00:48:10;;;;;;;;;;;20.50;83.80;;;;;;5052594;28;19924;-60
2022/09/22 00:50:36;;;;;;;;;;;20.10;83.50;;;;;;5068729;28;19925;-60
2022/09/22 00:53:03;;;;;;;;;;;20.00;83.40;;;;;;5074368;28;19935;-60
2022/09/22 00:55:30;;;;;;;;;;;20.20;83.50;;;;;;5059309;28;19925;-60
2022/09/22 00:57:56;;;;;;;;;;;20.40;83.70;;;;;;5062320;28;19932;-61
2022/09/22 01:00:21;;;;;;;;;;;20.30;83.60;;;;;;5053496;28;19929;-61
2022/09/22 01:02:49;;;;;;;;;;;20.40;83.60;;;;;;5060107;28;19947;-68
2022/09/22 01:05:14;;;;;;;;;;;20.40;83.60;;;;;;5060544;28;19971;-68
2022/09/22 01:07:41;;;;;;;;;;;20.40;83.70;;;;;;5052751;28;19960;-68
2022/09/22 01:10:07;;;;;;;;;;;20.30;83.60;;;;;;5052526;28;19970;-68
2022/09/22 01:12:33;;;;;;;;;;;20.00;83.40;;;;;;5069481;28;19944;-68
2022/09/22 01:15:01;;;;;;;;;;;20.10;83.40;;;;;;5071244;28;19925;-68
2022/09/22 01:17:35;;;;;;;;;;;20.40;83.60;;;;;;5071812;28;19931;-68
2022/09/22 01:20:16;;;;;;;;;;;20.40;83.50;;;;;;5071400;28;20019;-68
2022/09/22 01:23:05;;;;;;;;;;;20.30;83.50;;;;;;5053726;28;19952;-68
2022/09/22 01:25:31;;;;;;;;;;;;;;;;;;5051986;28;19929;-68
2022/09/22 01:28:15;;;;;;;;;;;20.30;83.40;;;;;;5065757;28;19930;-68
2022/09/22 01:30:59;;;;;;;;;;;20.30;83.40;;;;;;5072603;28;19932;-60
2022/09/22 01:33:43;;;;;;;;;;;20.30;83.40;;;;;;5054281;28;20271;-59
2022/09/22 01:36:09;;;;;;;;;;;20.20;83.30;;;;;;5066019;28;20406;-62
2022/09/22 01:38:36;;;;;;;;;;;20.00;83.30;;;;;;5072759;28;19924;-61
2022/09/22 01:41:03;;;;;;;;;;;20.10;83.30;;;;;;5067975;28;19929;-60
2022/09/22 01:43:31;;;;;;;;;;;20.10;83.30;;;;;;5059594;28;19932;-62
2022/09/22 01:45:58;;;;;;;;;;;20.20;83.20;;;;;;5073782;28;19933;-62
2022/09/22 01:48:27;;;;;;;;;;;20.30;83.20;;;;;;5088404;28;19928;-61
2022/09/22 01:50:54;;;;;;;;;;;20.10;83.10;;;;;;5075007;28;19924;-62
2022/09/22 01:53:21;;;;;;;;;;;20.20;83.70;;;;;;5077220;28;19947;-60
2022/09/22 01:55:48;;;;;;;;;;;20.30;83.20;;;;;;5073456;28;19924;-60
2022/09/22 01:58:14;;;;;;;;;;;20.10;83.10;;;;;;5071729;28;19932;-60
2022/09/22 02:00:42;;;;;;;;;;;20.20;83.10;;;;;;5060794;28;19968;-60
2022/09/22 02:03:11;;;;;;;;;;;20.20;83.10;;;;;;5058402;28;19925;-62
2022/09/22 02:05:39;;;;;;;;;;;20.00;82.90;;;;;;5068134;28;19925;-61
2022/09/22 02:08:05;;;;;;;;;;;;;;;;;;5055383;28;19932;-64
2022/09/22 02:10:31;;;;;;;;;;;20.00;83.00;;;;;;5062227;28;19920;-63
2022/09/22 02:12:56;;;;;;;;;;;20.10;83.60;;;;;;5075287;28;20389;-66
2022/09/22 02:18:07;;;;;;;;;;;;;;;;;;5057924;28;19947;-63
2022/09/22 02:20:32;;;;;;;;;;;20.30;83.10;;;;;;5060413;28;20066;-60
2022/09/22 02:22:58;;;;;;;;;;;20.20;83.10;;;;;;5076663;28;20371;-60
2022/09/22 02:25:24;;;;;;;;;;;20.10;83.00;;;;;;5074477;28;20017;-64
2022/09/22 02:27:50;;;;;;;;;;;;;;;;;;5054682;28;19932;-68
2022/09/22 02:30:15;;;;;;;;;;;20.00;82.80;;;;;;5062616;28;19978;-67
2022/09/22 02:32:42;;;;;;;;;;;20.30;83.10;;;;;;5074364;28;19928;-63
2022/09/22 02:35:07;;;;;;;;;;;20.20;83.00;;;;;;5074956;28;19929;-61
2022/09/22 02:37:38;;;;;;;;;;;20.20;83.00;;;;;;5074950;28;20042;-60
2022/09/22 02:40:13;;;;;;;;;;;20.10;82.90;;;;;;5060225;28;20016;-60
2022/09/22 02:42:40;;;;;;;;;;;20.10;82.90;;;;;;5072883;28;19924;-60
2022/09/22 02:45:08;;;;;;;;;;;19.90;82.90;;;;;;5076311;28;19978;-60
2022/09/22 02:47:39;;;;;;;;;;;20.00;82.90;;;;;;5073114;28;19974;-60
2022/09/22 02:50:07;;;;;;;;;;;20.00;82.80;;;;;;5068881;28;19929;-61
2022/09/22 02:52:33;;;;;;;;;;;20.00;82.90;;;;;;5072962;28;19924;-60
2022/09/22 02:54:59;;;;;;;;;;;19.90;82.90;;;;;;5074618;28;19967;-63
2022/09/22 02:57:24;;;;;;;;;;;20.10;83.00;;;;;;5064006;28;19970;-64
2022/09/22 02:59:50;;;;;;;;;;;20.00;82.90;;;;;;5058574;28;19955;-61
2022/09/22 03:02:16;;;;;;;;;;;20.30;83.00;;;;;;5055449;28;20020;-67
2022/09/22 03:04:41;;;;;;;;;;;19.90;82.80;;;;;;5070590;28;20306;-67
2022/09/22 03:07:07;;;;;;;;;;;19.90;83.20;;;;;;5074254;28;19925;-67
2022/09/22 03:09:32;;;;;;;;;;;19.90;82.80;;;;;;5067980;28;20066;-61
2022/09/22 03:11:58;;;;;;;;;;;20.20;83.00;;;;;;5072598;28;20374;-61
2022/09/22 03:14:24;;;;;;;;;;;19.80;82.80;;;;;;5071401;28;19928;-62
2022/09/22 03:16:49;;;;;;;;;;;20.00;82.90;;;;;;5073866;28;20087;-64
2022/09/22 03:19:15;;;;;;;;;;;19.80;82.70;;;;;;5073063;28;20548;-61
2022/09/22 03:21:41;;;;;;;;;;;19.80;82.70;;;;;;5060639;28;19935;-67
2022/09/22 03:24:06;;;;;;;;;;;20.00;82.70;;;;;;5064380;28;20009;-67
2022/09/22 03:26:33;;;;;;;;;;;19.80;82.60;;;;;;5075096;28;19928;-67
2022/09/22 03:28:59;;;;;;;;;;;19.80;82.70;;;;;;5071192;28;19932;-60
2022/09/22 03:31:25;;;;;;;;;;;20.00;82.80;;;;;;5064788;28;19925;-67
2022/09/22 03:33:50;;;;;;;;;;;19.90;82.70;;;;;;5061252;28;20154;-67
2022/09/22 03:36:16;;;;;;;;;;;19.90;82.70;;;;;;5075222;28;20298;-68
2022/09/22 03:38:43;;;;;;;;;;;20.10;82.90;;;;;;5073238;28;20283;-61
2022/09/22 03:41:08;;;;;;;;;;;20.10;82.80;;;;;;5072949;28;20298;-61
2022/09/22 03:43:34;;;;;;;;;;;19.90;82.60;;;;;;5070049;28;19924;-60
2022/09/22 03:46:00;;;;;;;;;;;19.90;82.70;;;;;;5088362;28;19930;-60
2022/09/22 03:48:27;;;;;;;;;;;19.80;82.70;;;;;;5073889;28;19925;-64
2022/09/22 03:50:53;;;;;;;;;;;20.00;82.70;;;;;;5065356;28;19970;-62
2022/09/22 03:53:19;;;;;;;;;;;19.70;82.70;;;;;;5054978;28;20317;-62
2022/09/22 03:55:44;;;;;;;;;;;19.90;82.70;;;;;;5060419;28;19928;-68
2022/09/22 03:58:10;;;;;;;;;;;19.60;82.60;;;;;;5054586;28;19978;-66
2022/09/22 04:00:35;;;;;;;;;;;20.10;82.90;;;;;;5058989;28;19975;-67
2022/09/22 04:03:01;;;;;;;;;;;19.60;82.60;;;;;;5070949;28;19982;-60
2022/09/22 04:05:27;;;;;;;;;;;20.10;82.80;;;;;;5068520;28;19924;-60
2022/09/22 04:07:52;;;;;;;;;;;19.80;82.70;;;;;;5060794;28;19930;-60
2022/09/22 04:10:18;;;;;;;;;;;19.80;82.70;;;;;;5073403;28;20081;-60
2022/09/22 04:12:44;;;;;;;;;;;19.80;82.70;;;;;;5070142;28;19925;-60
2022/09/22 04:15:10;;;;;;;;;;;19.50;82.60;;;;;;5053954;28;19932;-64
2022/09/22 04:17:35;;;;;;;;;;;19.90;82.80;;;;;;5059636;28;19925;-61
2022/09/22 04:20:02;;;;;;;;;;;19.90;82.80;;;;;;5061258;28;20070;-61
2022/09/22 04:22:28;;;;;;;;;;;20.00;82.80;;;;;;5074486;28;19924;-60
2022/09/22 04:24:53;;;;;;;;;;;20.00;82.90;;;;;;5073358;28;20306;-60
2022/09/22 04:27:19;;;;;;;;;;;20.00;82.90;;;;;;5067934;28;20386;-60
2022/09/22 04:29:45;;;;;;;;;;;19.90;82.90;;;;;;5074328;28;19924;-61
2022/09/22 04:32:10;;;;;;;;;;;19.80;82.70;;;;;;5054058;28;19957;-67
2022/09/22 04:34:36;;;;;;;;;;;19.90;83.00;;;;;;5054105;28;19925;-61
2022/09/22 04:37:02;;;;;;;;;;;;;;;;;;5058794;28;19925;-67
2022/09/22 04:39:28;;;;;;;;;;;19.70;82.90;;;;;;5054976;28;19925;-62
2022/09/22 04:41:53;;;;;;;;;;;19.60;82.80;;;;;;5068908;28;19925;-62
2022/09/22 04:44:19;;;;;;;;;;;19.90;83.10;;;;;;5073011;28;19931;-63
2022/09/22 04:46:45;;;;;;;;;;;19.60;82.80;;;;;;5058279;28;19975;-61
2022/09/22 04:49:12;;;;;;;;;;;20.00;83.00;;;;;;5069822;28;19925;-62
2022/09/22 04:51:37;;;;;;;;;;;19.80;83.00;;;;;;5072909;28;19970;-63
2022/09/22 04:54:03;;;;;;;;;;;19.70;82.80;;;;;;5072526;28;20378;-60
2022/09/22 04:56:29;;;;;;;;;;;19.90;83.00;;;;;;5071215;28;19925;-61
2022/09/22 04:58:55;;;;;;;;;;;19.70;82.90;;;;;;5053761;28;20010;-60
2022/09/22 05:01:20;;;;;;;;;;;19.60;82.80;;;;;;5056662;28;19984;-61
2022/09/22 05:03:46;;;;;;;;;;;20.00;83.00;;;;;;5053629;28;19925;-61
2022/09/22 05:06:12;;;;;;;;;;;19.80;83.00;;;;;;5053458;28;19925;-66
2022/09/22 05:08:38;;;;;;;;;;;19.60;82.80;;;;;;5061805;28;19973;-61
2022/09/22 05:11:07;;;;;;;;;;;;;;;;;;5059812;28;19932;-67
2022/09/22 05:13:33;;;;;;;;;;;19.80;82.80;;;;;;5057553;28;20302;-67
2022/09/22 05:15:58;;;;;;;;;;;19.70;82.80;;;;;;5057857;28;20015;-60
2022/09/22 05:18:24;;;;;;;;;;;19.70;82.80;;;;;;5058379;28;19933;-60
2022/09/22 05:20:50;;;;;;;;;;;19.70;82.70;;;;;;5075293;28;19931;-60
2022/09/22 05:23:15;;;;;;;;;;;19.80;82.90;;;;;;5077551;28;19928;-60
2022/09/22 05:25:41;;;;;;;;;;;19.70;82.80;;;;;;5076488;28;19981;-60
2022/09/22 05:28:07;;;;;;;;;;;19.80;83.00;;;;;;5077452;28;19924;-60
2022/09/22 05:30:33;;;;;;;;;;;19.80;82.90;;;;;;5065299;28;20012;-68
2022/09/22 05:32:58;;;;;;;;;;;19.60;82.80;;;;;;5064073;28;19924;-67
2022/09/22 05:35:24;;;;;;;;;;;19.60;82.80;;;;;;5076270;28;19928;-60
2022/09/22 05:37:50;;;;;;;;;;;19.70;82.80;;;;;;5075971;28;19924;-60
2022/09/22 05:40:16;;;;;;;;;;;19.60;82.70;;;;;;5073216;28;19935;-60
2022/09/22 05:42:45;;;;;;;;;;;19.80;82.70;;;;;;5074317;28;20313;-60
2022/09/22 05:45:11;;;;;;;;;;;19.60;82.70;;;;;;5075851;28;20298;-60
2022/09/22 05:47:37;;;;;;;;;;;19.80;82.80;;;;;;5077008;28;19925;-60
2022/09/22 05:50:03;;;;;;;;;;;19.70;82.60;;;;;;5072627;28;19924;-60
2022/09/22 05:52:29;;;;;;;;;;;19.70;82.50;;;;;;5067893;28;20073;-60
2022/09/22 05:54:56;;;;;;;;;;;19.80;82.60;;;;;;5077217;28;20289;-60
2022/09/22 05:57:26;;;;;;;;;;;19.90;82.70;;;;;;5074372;28;20019;-61
2022/09/22 05:59:52;;;;;;;;;;;19.70;82.50;;;;;;5074996;28;19928;-61
2022/09/22 06:02:17;;;;;;;;;;;19.90;82.30;;;;;;5065356;28;19924;-61
2022/09/22 06:04:43;;;;;;;;;;;19.90;82.50;;;;;;5057328;28;20336;-61
2022/09/22 06:07:09;;;;;;;;;;;19.80;82.50;;;;;;5056443;28;19931;-60
2022/09/22 06:09:35;;;;;;;;;;;19.90;82.50;;;;;;5066612;28;19925;-60
2022/09/22 06:12:00;;;;;;;;;;;19.80;82.30;;;;;;5071630;28;19986;-60
2022/09/22 06:14:26;;;;;;;;;;;19.70;82.30;;;;;;5070875;28;19970;-60
2022/09/22 06:16:52;;;;;;;;;;;19.70;82.20;;;;;;5072625;28;20024;-61
2022/09/22 06:19:18;;;;;;;;;;;19.80;82.20;;;;;;5065165;28;19951;-60
2022/09/22 06:21:44;;;;;;;;;;;20.10;81.30;;;;;;5075245;28;19999;-60
2022/09/22 06:24:11;;;;;;;;;;;20.00;82.00;;;;;;5072744;28;19932;-60
2022/09/22 06:26:37;;;;;;;;;;;20.10;81.80;;;;;;5076246;28;19925;-60
2022/09/22 06:29:02;;;;;;;;;;;20.00;81.60;;;;;;5068320;28;19970;-60
2022/09/22 06:31:28;;;;;;;;;;;20.60;81.60;;;;;;5059580;28;19925;-70
2022/09/22 06:33:54;;;;;;;;;;;20.70;81.40;;;;;;5069172;28;19920;-71
2022/09/22 06:36:30;;;;;;;;;;;20.70;81.20;;;;;;5075120;28;19925;-61
2022/09/22 06:38:59;;;;;;;;;;;21.10;81.30;;;;;;5074732;28;20023;-60
2022/09/22 06:41:25;;;;;;;;;;;21.00;81.10;;;;;;5075437;28;20342;-63
2022/09/22 06:43:54;;;;;;;;;;;20.80;80.70;;;;;;5072486;28;20360;-60
2022/09/22 06:46:25;;;;;;;;;;;21.20;80.70;;;;;;5075825;28;19924;-61
2022/09/22 06:48:55;;;;;;;;;;;21.30;80.50;;;;;;5075793;28;19925;-61
2022/09/22 06:51:24;;;;;;;;;;;21.30;80.40;;;;;;5075503;28;19972;-60
2022/09/22 06:53:50;;;;;;;;;;;21.70;80.50;;;;;;5063057;28;20478;-60
2022/09/22 06:56:18;;;;;;;;;;;21.50;80.20;;;;;;5061745;28;20014;-60
2022/09/22 06:58:44;;;;;;;;;;;21.70;80.20;;;;;;5062694;28;19931;-60
2022/09/22 07:01:10;;;;;;;;;;;21.50;79.90;;;;;;5061393;28;19925;-60
2022/09/22 07:03:40;;;;;;;;;;;21.80;80.30;;;;;;5075683;28;20382;-60
2022/09/22 07:06:06;;;;;;;;;;;21.60;79.70;;;;;;5074028;28;20278;-62
2022/09/22 07:08:33;;;;;;;;;;;21.90;79.60;;;;;;5074082;28;19924;-66
2022/09/22 07:11:02;;;;;;;;;;;21.90;79.60;;;;;;5072045;28;19925;-66
2022/09/22 07:13:28;;;;;;;;;;;22.20;79.70;;;;;;5074752;28;20007;-67
2022/09/22 07:16:06;;;;;;;;;;;22.40;79.60;;;;;;5073002;28;19924;-65
2022/09/22 07:18:32;;;;;;;;;;;22.30;79.50;;;;;;5072203;28;19920;-60
2022/09/22 07:21:05;;;;;;;;;;;22.10;79.20;;;;;;5072785;28;20390;-60
2022/09/22 07:23:33;;;;;;;;;;;22.30;79.30;;;;;;5074714;28;19924;-60
2022/09/22 07:26:02;;;;;;;;;;;22.60;79.70;;;;;;5074262;28;20397;-61
2022/09/22 07:28:28;;;;;;;;;;;22.20;79.30;;;;;;5073846;28;19929;-61
2022/09/22 07:30:57;;;;;;;;;;;22.40;79.10;;;;;;5073135;28;19959;-60
2022/09/22 07:33:23;;;;;;;;;;;22.50;79.30;;;;;;5074541;28;19933;-60
2022/09/22 07:36:01;;;;;;;;;;;22.60;79.20;;;;;;5071809;28;19931;-72
2022/09/22 07:38:37;;;;;;;;;;;22.60;77.50;;;;;;5053763;28;19924;-61
2022/09/22 07:41:04;;;;;;;;;;;22.90;76.90;;;;;;5066057;28;20015;-61
2022/09/22 07:43:30;;;;;;;;;;;22.90;77.30;;;;;;5074946;28;20009;-61
2022/09/22 07:45:56;;;;;;;;;;;22.60;76.60;;;;;;5073857;28;20346;-61
2022/09/22 07:48:35;;;;;;;;;;;22.70;75.40;;;;;;5074486;28;19932;-63
2022/09/22 07:51:02;;;;;;;;;;;22.50;76.20;;;;;;5056317;28;19925;-60
2022/09/22 07:53:28;;;;;;;;;;;22.60;76.10;;;;;;5071390;28;19925;-60
2022/09/22 07:55:55;;;;;;;;;;;22.50;75.00;;;;;;5074068;28;20385;-61
2022/09/22 07:58:21;;;;;;;;;;;22.50;75.80;;;;;;5071849;28;19933;-62
2022/09/22 08:00:46;;;;;;;;;;;22.80;75.20;;;;;;5072699;28;20370;-63
2022/09/22 08:03:12;;;;;;;;;;;22.70;75.30;;;;;;5072232;28;19925;-72
2022/09/22 08:05:39;;;;;;;;;;;22.70;74.60;;;;;;5074612;28;19928;-72
2022/09/22 08:08:06;;;;;;;;;;;22.30;74.80;;;;;;5074668;28;19931;-62
2022/09/22 08:10:34;;;;;;;;;;;22.50;74.80;;;;;;5075198;28;19924;-61
2022/09/22 08:13:01;;;;;;;;;;;22.30;74.80;;;;;;5070061;28;19932;-69
2022/09/22 08:15:27;;;;;;;;;;;22.50;74.60;;;;;;5069057;28;19924;-69
2022/09/22 08:17:56;;;;;;;;;;;22.70;74.40;;;;;;5074050;28;19924;-60
2022/09/22 08:20:24;;;;;;;;;;;22.40;73.30;;;;;;5073875;28;19932;-60
2022/09/22 08:22:50;;;;;;;;;;;22.70;74.70;;;;;;5071151;28;20015;-60
2022/09/22 08:25:16;;;;;;;;;;;22.20;74.30;;;;;;5075013;28;19931;-60
2022/09/22 08:27:42;;;;;;;;;;;22.40;73.90;;;;;;5073943;28;20054;-60
2022/09/22 08:30:10;;;;;;;;;;;22.50;73.90;;;;;;5074064;28;19994;-60
2022/09/22 08:32:36;;;;;;;;;;;22.40;74.00;;;;;;5072255;28;20023;-62
2022/09/22 08:35:02;;;;;;;;;;;22.50;74.40;;;;;;5054531;28;19976;-60
2022/09/22 08:37:28;;;;;;;;;;;22.70;74.00;;;;;;5053926;28;20378;-61
2022/09/22 08:39:54;;;;;;;;;;;22.70;74.40;;;;;;5059487;28;19927;-60
2022/09/22 08:42:21;;;;;;;;;;;22.60;74.30;;;;;;5073345;28;19931;-60
2022/09/22 08:44:48;;;;;;;;;;;22.50;75.20;;;;;;5058998;28;20374;-60
2022/09/22 08:53:02;;;;;;;;;;;22.70;73.40;;;;;;5071728;28;20014;-71
2022/09/22 08:55:29;;;;;;;;;;;22.70;74.50;;;;;;5072047;28;19971;-61
2022/09/22 08:58:19;;;;;;;;;;;22.50;74.70;;;;;;5073709;28;19969;-61
2022/09/22 09:00:51;;;;;;;;;;;22.90;73.70;;;;;;5079624;28;19948;-63
2022/09/22 09:03:43;;;;;;;;;;;22.80;73.70;;;;;;5053816;28;19925;-62
2022/09/22 09:06:11;;;;;;;;;;;22.60;73.60;;;;;;5053821;28;19925;-62
2022/09/22 09:08:40;;;;;;;;;;;22.60;75.10;;;;;;5044610;28;19932;-63
2022/09/22 09:11:18;;;;;;;;;;;22.60;73.70;;;;;;5067828;28;19927;-61
2022/09/22 09:14:03;;;;;;;;;;;22.50;73.60;;;;;;5053831;28;20341;-61
2022/09/22 09:16:47;;;;;;;;;;;22.70;73.50;;;;;;5052264;28;19921;-62
2022/09/22 09:19:13;;;;;;;;;;;22.80;73.50;;;;;;5053612;28;19925;-63
2022/09/22 09:21:39;;;;;;;;;;;22.50;74.60;;;;;;5058845;28;20382;-61
2022/09/22 09:24:08;;;;;;;;;;;22.50;75.20;;;;;;5072614;28;19932;-63
2022/09/22 09:26:34;;;;;;;;;;;22.40;75.30;;;;;;5071463;28;20395;-62
2022/09/22 09:29:00;;;;;;;;;;;22.60;75.50;;;;;;5073773;28;19963;-61
2022/09/22 09:31:26;;;;;;;;;;;22.30;75.50;;;;;;5072021;28;19920;-65
2022/09/22 09:33:55;;;;;;;;;;;22.70;75.70;;;;;;5056405;28;19932;-63
2022/09/22 09:36:21;;;;;;;;;;;22.50;74.40;;;;;;5053622;28;19933;-63
2022/09/22 09:38:48;;;;;;;;;;;22.40;75.30;;;;;;5052425;28;19928;-64
2022/09/22 09:41:33;;;;;;;;;;;22.30;75.60;;;;;;5053215;28;19925;-62
2022/09/22 09:43:59;;;;;;;;;;;22.40;75.50;;;;;;5069521;28;19931;-61
2022/09/22 09:46:29;;;;;;;;;;;22.30;75.60;;;;;;5072344;28;19924;-69
2022/09/22 09:48:58;;;;;;;;;;;22.40;76.10;;;;;;5073117;28;19931;-62
2022/09/22 09:51:25;;;;;;;;;;;22.10;75.50;;;;;;5073817;28;19924;-63
2022/09/22 09:53:51;;;;;;;;;;;22.50;75.60;;;;;;5070034;28;19929;-62
2022/09/22 09:56:19;;;;;;;;;;;22.20;75.00;;;;;;5070868;28;19930;-64
2022/09/22 10:01:40;;;;;;;;;;;22.10;74.40;;;;;;5076743;28;20089;-62
2022/09/22 10:04:27;;;;;;;;;;;21.90;75.90;;;;;;5071318;28;19986;-64
2022/09/22 10:06:53;;;;;;;;;;;22.20;76.20;;;;;;5056745;28;20028;-61
2022/09/22 10:09:22;;;;;;;;;;;22.20;76.20;;;;;;5056703;28;20012;-61
2022/09/22 10:11:56;;;;;;;;;;;22.00;74.90;;;;;;5056931;28;19924;-64
2022/09/22 10:14:21;;;;;;;;;;;22.20;76.40;;;;;;5058296;28;19929;-61
2022/09/22 10:16:51;;;;;;;;;;;22.10;75.70;;;;;;5074724;28;19994;-63
2022/09/22 10:19:19;;;;;;;;;;;22.20;74.90;;;;;;5076702;28;20369;-66
2022/09/22 10:21:45;;;;;;;;;;;22.30;76.20;;;;;;5075575;28;20369;-62
2022/09/22 10:24:30;;;;;;;;;;;22.20;75.90;;;;;;5076714;28;19928;-64
2022/09/22 10:26:56;;;;;;;;;;;22.00;74.40;;;;;;5073787;28;19924;-62
2022/09/22 10:29:21;;;;;;;;;;;22.00;75.60;;;;;;5074778;28;19932;-62
2022/09/22 10:32:04;;;;;;;;;;;22.40;75.90;;;;;;5073095;28;19924;-61
2022/09/22 10:34:30;;;;;;;;;;;22.30;75.40;;;;;;5073585;28;19924;-65
2022/09/22 10:36:56;;;;;;;;;;;22.40;75.40;;;;;;5076237;28;19925;-62
2022/09/22 10:39:24;;;;;;;;;;;22.50;76.00;;;;;;5075266;28;19990;-72
2022/09/22 10:41:50;;;;;;;;;;;22.70;75.60;;;;;;5069806;28;20028;-61
2022/09/22 10:44:16;;;;;;;;;;;22.60;74.70;;;;;;5064984;28;19976;-73
2022/09/22 10:46:48;;;;;;;;;;;22.70;75.00;;;;;;5074735;28;19986;-65
2022/09/22 10:49:18;;;;;;;;;;;22.30;73.40;;;;;;5076118;28;20019;-72
2022/09/22 10:51:44;;;;;;;;;;;;;;;;;;5075171;28;19920;-68
2022/09/22 10:54:09;;;;;;;;;;;22.50;73.70;;;;;;5074631;28;19924;-61
2022/09/22 10:56:36;;;;;;;;;;;22.10;73.70;;;;;;5074980;28;19960;-61
2022/09/22 10:59:05;;;;;;;;;;;22.40;73.30;;;;;;5076046;28;20007;-62
2022/09/22 11:01:49;;;;;;;;;;;22.00;71.80;;;;;;5075670;28;20086;-61
2022/09/22 11:04:22;;;;;;;;;;;22.20;71.80;;;;;;5072448;28;20430;-62
2022/09/22 11:12:52;;;;;;;;;;;22.40;72.30;;;;;;5058888;28;19925;-61
2022/09/22 11:15:22;;;;;;;;;;;22.50;71.60;;;;;;5068279;28;19928;-62
2022/09/22 11:17:51;;;;;;;;;;;22.40;72.80;;;;;;5061900;28;19924;-62
2022/09/22 11:20:21;;;;;;;;;;;22.70;72.30;;;;;;5064572;28;20010;-61
2022/09/22 11:22:57;;;;;;;;;;;22.50;71.40;;;;;;5074631;28;19924;-65
2022/09/22 11:25:23;;;;;;;;;;;22.60;71.50;;;;;;5074109;28;19921;-62
2022/09/22 11:27:52;;;;;;;;;;;22.90;72.90;;;;;;5073339;28;20025;-67
2022/09/22 11:30:20;;;;;;;;;;;22.70;71.70;;;;;;5075482;28;19971;-61
2022/09/22 11:33:06;;;;;;;;;;;22.60;72.70;;;;;;5075337;28;19931;-62
2022/09/22 11:36:01;;;;;;;;;;;22.70;72.30;;;;;;5054690;28;20325;-68
2022/09/22 11:38:40;;;;;;;;;;;22.70;70.90;;;;;;4996262;28;19976;-69
2022/09/22 11:41:07;;;;;;;;;;;22.80;70.70;;;;;;4992160;28;20399;-64
2022/09/22 11:43:49;;;;;;;;;;;23.00;72.00;;;;;;5011048;28;19933;-63
2022/09/22 11:46:17;;;;;;;;;;;22.70;70.50;;;;;;5012182;28;19929;-69
2022/09/22 11:48:58;;;;;;;;;;;23.20;70.10;;;;;;5012878;28;20072;-69
2022/09/22 11:51:42;;;;;;;;;;;22.80;69.70;;;;;;4997498;28;19926;-69
2022/09/22 11:54:27;;;;;;;;;;;23.10;69.90;;;;;;4993286;28;19937;-61
2022/09/22 11:56:55;;;;;;;;;;;23.10;70.00;;;;;;5008334;28;19956;-66
2022/09/22 11:59:41;;;;;;;;;;;22.70;71.40;;;;;;5011233;28;19929;-65
2022/09/22 12:02:27;;;;;;;;;;;22.70;71.60;;;;;;4998477;28;19972;-62
2022/09/22 12:04:56;;;;;;;;;;;22.90;70.20;;;;;;5012824;28;19926;-70
2022/09/22 12:07:23;;;;;;;;;;;22.80;70.30;;;;;;4994406;28;20382;-69
2022/09/22 12:09:59;;;;;;;;;;;22.90;71.90;;;;;;4994687;28;20211;-63
2022/09/22 12:12:25;;;;;;;;;;;23.10;70.30;;;;;;5010949;28;19977;-62
2022/09/22 12:14:58;;;;;;;;;;;23.10;71.30;;;;;;5043436;28;20021;-63
2022/09/22 12:17:35;;;;;;;;;;;23.10;70.50;;;;;;5056104;28;20389;-62
2022/09/22 12:20:04;;;;;;;;;;;23.20;70.70;;;;;;5072939;28;19974;-61
2022/09/22 12:22:33;;;;;;;;;;;23.30;72.10;;;;;;5072871;28;20376;-61
2022/09/22 12:25:00;;;;;;;;;;;22.90;70.60;;;;;;5074439;28;20290;-64
2022/09/22 12:27:26;;;;;;;;;;;23.30;72.10;;;;;;5074873;28;19925;-61
2022/09/22 12:29:53;;;;;;;;;;;23.30;72.50;;;;;;5073223;28;19924;-61
2022/09/22 12:32:26;;;;;;;;;;;23.30;72.40;;;;;;5073928;28;19920;-63
2022/09/22 12:34:55;;;;;;;;;;;23.50;71.10;;;;;;5053114;28;19970;-64
2022/09/22 12:37:27;;;;;;;;;;;23.40;71.10;;;;;;5069022;28;20345;-67
2022/09/22 12:39:53;;;;;;;;;;;23.50;72.70;;;;;;5054172;28;19925;-65
2022/09/22 12:42:34;;;;;;;;;;;23.30;72.10;;;;;;5069598;28;20321;-64
2022/09/22 12:45:05;;;;;;;;;;;23.50;71.20;;;;;;5072711;28;20015;-62
2022/09/22 12:47:35;;;;;;;;;;;23.50;71.40;;;;;;5074407;28;20442;-62
2022/09/22 12:50:03;;;;;;;;;;;23.40;71.50;;;;;;5072699;28;20344;-63
2022/09/22 12:52:41;;;;;;;;;;;23.10;72.70;;;;;;5072977;28;19994;-62
2022/09/22 12:55:20;;;;;;;;;;;23.50;71.60;;;;;;5074066;28;19964;-62
2022/09/22 12:57:46;;;;;;;;;;;23.30;71.60;;;;;;5073755;28;20451;-61
2022/09/22 13:00:22;;;;;;;;;;;23.20;73.10;;;;;;5074013;28;19925;-63
2022/09/22 13:02:49;;;;;;;;;;;23.40;71.90;;;;;;5056304;28;19924;-65
2022/09/22 13:05:24;;;;;;;;;;;23.30;73.30;;;;;;5072839;28;20271;-65
2022/09/22 13:07:52;;;;;;;;;;;23.10;71.90;;;;;;5073749;28;20332;-65
2022/09/22 13:13:02;;;;;;;;;;;23.10;72.00;;;;;;5073568;28;19924;-62
2022/09/22 13:15:30;;;;;;;;;;;23.10;72.10;;;;;;5073617;28;19970;-63
2022/09/22 13:17:57;;;;;;;;;;;23.10;73.50;;;;;;5072584;28;19964;-62
2022/09/22 13:20:30;;;;;;;;;;;23.20;73.20;;;;;;5074355;28;20007;-62
2022/09/22 13:23:04;;;;;;;;;;;23.30;72.30;;;;;;5073853;28;19925;-63
2022/09/22 13:25:30;;;;;;;;;;;23.40;72.50;;;;;;5073361;28;19924;-62
2022/09/22 13:28:22;;;;;;;;;;;23.20;73.50;;;;;;5073678;28;19924;-62
2022/09/22 13:31:08;;;;;;;;;;;23.20;72.50;;;;;;5070497;28;19932;-65
2022/09/22 13:33:34;;;;;;;;;;;23.30;72.50;;;;;;5073720;28;19956;-62
2022/09/22 13:36:04;;;;;;;;;;;23.30;73.90;;;;;;5077347;28;20289;-63
2022/09/22 13:38:31;;;;;;;;;;;23.40;74.00;;;;;;5076440;28;19930;-63
2022/09/22 13:40:57;;;;;;;;;;;23.30;74.00;;;;;;5076235;28;20297;-62
2022/09/22 13:43:25;;;;;;;;;;;23.20;73.80;;;;;;5076338;28;19925;-62
2022/09/22 13:45:50;;;;;;;;;;;23.30;74.10;;;;;;5075775;28;19935;-63
2022/09/22 13:48:16;;;;;;;;;;;23.50;74.00;;;;;;5077271;28;20023;-63
2022/09/22 13:50:49;;;;;;;;;;;23.20;73.90;;;;;;5077855;28;19924;-63
2022/09/22 13:53:16;;;;;;;;;;;23.10;72.70;;;;;;5059197;28;19925;-61
2022/09/22 13:55:42;;;;;;;;;;;23.00;74.10;;;;;;5076531;28;19932;-68
2022/09/22 13:58:09;;;;;;;;;;;23.30;74.00;;;;;;5067372;28;19932;-66
2022/09/22 14:00:41;;;;;;;;;;;23.20;74.10;;;;;;5063838;28;19924;-63
2022/09/22 14:03:16;;;;;;;;;;;23.30;71.80;;;;;;5075566;28;19935;-64
2022/09/22 14:05:42;;;;;;;;;;;23.00;71.90;;;;;;5075792;28;19924;-62
2022/09/22 14:08:09;;;;;;;;;;;23.10;72.70;;;;;;5074984;28;19935;-62
2022/09/22 14:10:35;;;;;;;;;;;23.30;73.00;;;;;;5075411;28;20378;-62
2022/09/22 14:13:01;;;;;;;;;;;22.80;72.20;;;;;;5075735;28;19935;-64
2022/09/22 14:15:36;;;;;;;;;;;22.90;72.00;;;;;;5076677;28;19924;-66
2022/09/22 14:18:28;;;;;;;;;;;22.90;71.20;;;;;;5067783;28;19968;-72
2022/09/22 14:20:54;;;;;;;;;;;22.80;70.90;;;;;;5052301;28;19929;-62
2022/09/22 14:23:29;;;;;;;;;;;22.50;72.20;;;;;;5056742;28;19999;-61
2022/09/22 14:25:55;;;;;;;;;;;22.80;71.20;;;;;;5056641;28;19924;-64
2022/09/22 14:28:21;;;;;;;;;;;22.70;72.50;;;;;;5063163;28;20457;-72
2022/09/22 14:30:48;;;;;;;;;;;22.60;72.50;;;;;;5076327;28;19971;-62
2022/09/22 14:33:15;;;;;;;;;;;22.80;72.80;;;;;;5076315;28;20293;-62
2022/09/22 14:35:41;;;;;;;;;;;22.70;72.90;;;;;;5075041;28;20459;-72
2022/09/22 14:38:07;;;;;;;;;;;22.50;72.60;;;;;;5073880;28;19928;-68
2022/09/22 14:40:32;;;;;;;;;;;22.50;72.50;;;;;;5058349;28;19977;-62
2022/09/22 14:43:07;;;;;;;;;;;22.70;72.90;;;;;;5056416;28;19931;-63
2022/09/22 14:45:34;;;;;;;;;;;22.60;71.60;;;;;;5068528;28;20019;-65
2022/09/22 14:48:19;;;;;;;;;;;22.60;73.20;;;;;;5041362;28;19931;-62
2022/09/22 14:50:46;;;;;;;;;;;22.60;71.70;;;;;;5073973;28;20401;-73